createdAt,value
2023-01-11T00:00:03.837Z,4.77
2023-01-11T00:02:39.827Z,4.77
2023-01-11T00:05:09.468Z,4.77
2023-01-11T00:07:37.382Z,4.79
2023-01-11T00:10:06.111Z,4.80
2023-01-11T00:12:35.368Z,4.81
2023-01-11T00:15:03.252Z,4.65
2023-01-11T00:17:31.268Z,4.81
2023-01-11T00:19:59.147Z,4.82
2023-01-11T00:22:27.183Z,4.77
2023-01-11T00:24:55.212Z,4.80
2023-01-11T00:27:23.089Z,4.80
2023-01-11T00:29:52.531Z,4.80
2023-01-11T00:32:20.432Z,4.81
2023-01-11T00:34:48.260Z,4.81
2023-01-11T00:37:16.107Z,4.82
2023-01-11T00:39:43.936Z,4.83
2023-01-11T00:42:30.381Z,4.83
2023-01-11T00:45:17.036Z,4.86
2023-01-11T00:48:00.889Z,4.84
2023-01-11T00:50:32.529Z,4.81
2023-01-11T00:53:01.049Z,4.82
2023-01-11T00:55:29.137Z,4.81
2023-01-11T00:57:56.981Z,4.77
2023-01-11T01:00:26.452Z,4.71
2023-01-11T01:02:54.467Z,4.75
2023-01-11T01:05:22.415Z,4.68
2023-01-11T01:07:50.532Z,4.72
2023-01-11T01:10:19.204Z,4.74
2023-01-11T01:13:05.553Z,4.73
2023-01-11T01:15:34.998Z,4.70
2023-01-11T01:18:03.160Z,4.69
2023-01-11T01:20:31.052Z,4.67
2023-01-11T01:22:58.889Z,4.67
2023-01-11T01:25:26.762Z,4.69
2023-01-11T01:27:54.602Z,4.70
2023-01-11T01:30:22.630Z,4.72
2023-01-11T01:32:51.789Z,4.70
2023-01-11T01:35:19.585Z,4.70
2023-01-11T01:37:47.409Z,4.71
2023-01-11T01:40:15.470Z,4.72
2023-01-11T01:42:43.275Z,4.69
2023-01-11T01:45:23.722Z,4.63
2023-01-11T01:47:56.161Z,4.59
2023-01-11T01:50:28.291Z,4.68
2023-01-11T01:53:00.620Z,4.72
2023-01-11T01:55:32.168Z,4.74
2023-01-11T01:58:03.466Z,4.60
2023-01-11T02:00:33.294Z,4.71
2023-01-11T02:03:03.499Z,4.68
2023-01-11T02:05:31.914Z,4.64
2023-01-11T02:08:01.577Z,4.57
2023-01-11T02:10:33.795Z,4.60
2023-01-11T02:13:05.041Z,4.59
2023-01-11T02:15:33.763Z,4.59
2023-01-11T02:18:03.117Z,4.63
2023-01-11T02:20:38.030Z,4.62
2023-01-11T02:23:43.553Z,4.61
2023-01-11T02:26:44.881Z,4.60
2023-01-11T02:29:26.571Z,4.56
2023-01-11T02:32:07.395Z,4.55
2023-01-11T02:34:43.229Z,4.52
2023-01-11T02:37:27.382Z,4.52
2023-01-11T02:40:01.676Z,4.51
2023-01-11T02:42:56.788Z,4.50
2023-01-11T02:45:44.249Z,4.48
2023-01-11T02:48:18.872Z,4.48
2023-01-11T02:50:53.076Z,4.40
2023-01-11T02:53:27.107Z,4.51
2023-01-11T02:56:00.738Z,4.52
2023-01-11T02:58:33.708Z,4.50
2023-01-11T03:01:03.217Z,4.47
2023-01-11T03:03:31.105Z,4.44
2023-01-11T03:06:03.179Z,4.46
2023-01-11T03:09:03.499Z,4.43
2023-01-11T03:12:05.016Z,4.42
2023-01-11T03:14:46.872Z,4.42
2023-01-11T03:17:30.191Z,4.42
2023-01-11T03:20:05.054Z,4.42
2023-01-11T03:22:42.681Z,4.43
2023-01-11T03:25:19.747Z,4.43
2023-01-11T03:27:54.488Z,4.35
2023-01-11T03:30:27.527Z,4.37
2023-01-11T03:33:04.677Z,4.38
2023-01-11T03:35:40.627Z,4.37
2023-01-11T03:38:17.274Z,4.35
2023-01-11T03:40:49.630Z,4.35
2023-01-11T03:43:20.319Z,4.31
2023-01-11T03:45:55.820Z,4.31
2023-01-11T03:48:29.982Z,4.33
2023-01-11T03:51:00.208Z,4.35
2023-01-11T03:53:34.591Z,4.23
2023-01-11T03:56:03.988Z,4.41
2023-01-11T03:58:32.026Z,4.43
2023-01-11T04:01:00.434Z,4.44
2023-01-11T04:03:29.825Z,4.47
2023-01-11T04:06:01.731Z,4.49
2023-01-11T04:08:31.041Z,4.45
2023-01-11T04:10:59.180Z,4.50
2023-01-11T04:13:27.040Z,4.48
2023-01-11T04:15:54.987Z,4.45
2023-01-11T04:18:22.938Z,4.45
2023-01-11T04:20:52.202Z,4.44
2023-01-11T04:23:20.051Z,4.42
2023-01-11T04:25:48.031Z,4.45
2023-01-11T04:28:16.042Z,4.45
2023-01-11T04:30:43.861Z,4.44
2023-01-11T04:33:13.168Z,4.45
2023-01-11T04:35:41.313Z,4.32
2023-01-11T04:38:10.473Z,4.36
2023-01-11T04:40:38.377Z,4.36
2023-01-11T04:43:05.214Z,4.33
2023-01-11T04:45:33.107Z,4.30
2023-01-11T04:48:00.968Z,4.30
2023-01-11T04:50:29.365Z,4.26
2023-01-11T04:52:58.962Z,4.21
2023-01-11T04:55:28.207Z,4.20
2023-01-11T04:57:56.012Z,4.19
2023-01-11T05:00:23.830Z,4.14
2023-01-11T05:02:51.647Z,4.16
2023-01-11T05:05:19.745Z,4.13
2023-01-11T05:07:49.405Z,4.09
2023-01-11T05:10:20.722Z,4.07
2023-01-11T05:12:50.235Z,4.08
2023-01-11T05:15:18.126Z,4.05
2023-01-11T05:17:46.034Z,4.04
2023-01-11T05:20:14.317Z,4.03
2023-01-11T05:22:42.220Z,3.95
2023-01-11T05:25:10.667Z,3.98
2023-01-11T05:27:38.494Z,3.97
2023-01-11T05:30:09.754Z,3.95
2023-01-11T05:32:37.582Z,3.86
2023-01-11T05:35:05.914Z,3.93
2023-01-11T05:37:33.870Z,3.91
2023-01-11T05:40:01.696Z,3.89
2023-01-11T05:42:29.642Z,3.86
2023-01-11T05:45:15.226Z,3.85
2023-01-11T05:47:44.489Z,3.76
2023-01-11T05:50:12.284Z,3.65
2023-01-11T05:52:40.134Z,3.82
2023-01-11T05:55:09.841Z,3.79
2023-01-11T05:57:37.657Z,3.74
2023-01-11T06:00:06.309Z,3.79
2023-01-11T06:02:35.766Z,3.76
2023-01-11T06:05:06.062Z,3.74
2023-01-11T06:07:33.946Z,3.72
2023-01-11T06:10:01.863Z,3.65
2023-01-11T06:12:31.102Z,3.65
2023-01-11T06:14:59.359Z,3.63
2023-01-11T06:17:27.262Z,3.64
2023-01-11T06:19:55.168Z,3.71
2023-01-11T06:22:24.400Z,3.78
2023-01-11T06:24:52.484Z,3.80
2023-01-11T06:27:20.328Z,3.78
2023-01-11T06:29:48.205Z,3.78
2023-01-11T06:32:16.047Z,3.77
2023-01-11T06:34:43.986Z,3.76
2023-01-11T06:37:11.810Z,3.76
2023-01-11T06:39:40.973Z,3.73
2023-01-11T06:42:08.795Z,3.81
2023-01-11T06:44:36.787Z,3.81
2023-01-11T06:47:04.784Z,3.82
2023-01-11T06:49:32.693Z,3.81
2023-01-11T06:52:00.493Z,3.82
2023-01-11T06:54:28.386Z,3.80
2023-01-11T06:56:57.627Z,3.78
2023-01-11T06:59:25.468Z,3.75
2023-01-11T07:01:53.462Z,3.78
2023-01-11T07:04:21.574Z,3.77
2023-01-11T07:06:49.471Z,3.80
2023-01-11T07:09:17.289Z,3.82
2023-01-11T07:11:45.113Z,3.88
2023-01-11T07:14:19.776Z,3.92
2023-01-11T07:16:47.712Z,3.93
2023-01-11T07:19:15.754Z,3.92
2023-01-11T07:21:45.105Z,3.94
2023-01-11T07:24:13.019Z,3.95
2023-01-11T07:26:41.417Z,3.95
2023-01-11T07:29:09.588Z,3.88
2023-01-11T07:31:38.991Z,3.98
2023-01-11T07:34:09.433Z,4.01
2023-01-11T07:36:39.525Z,3.87
2023-01-11T07:39:07.934Z,4.06
2023-01-11T07:41:53.201Z,4.11
2023-01-11T07:44:21.175Z,4.13
2023-01-11T07:46:50.457Z,4.15
2023-01-11T07:49:18.400Z,4.17
2023-01-11T07:51:46.301Z,4.19
2023-01-11T07:54:14.239Z,4.17
2023-01-11T07:56:42.115Z,4.18
2023-01-11T07:59:10.129Z,4.22
2023-01-11T08:01:38.223Z,4.18
2023-01-11T08:04:11.871Z,4.30
2023-01-11T08:06:40.067Z,4.31
2023-01-11T08:09:09.852Z,4.35
2023-01-11T08:11:55.099Z,4.39
2023-01-11T08:14:41.588Z,4.43
2023-01-11T08:17:12.024Z,4.51
2023-01-11T08:19:42.308Z,4.53
2023-01-11T08:22:10.328Z,4.56
2023-01-11T08:24:38.251Z,4.57
2023-01-11T08:27:06.533Z,4.59
2023-01-11T08:29:34.440Z,4.63
2023-01-11T08:32:02.416Z,4.67
2023-01-11T08:34:30.377Z,4.71
2023-01-11T08:37:02.023Z,4.70
2023-01-11T08:39:31.340Z,4.75
2023-01-11T08:41:59.295Z,4.75
2023-01-11T08:44:35.028Z,4.78
2023-01-11T08:47:03.512Z,4.78
2023-01-11T08:49:31.374Z,4.81
2023-01-11T08:52:00.671Z,4.82
2023-01-11T08:54:28.657Z,4.82
2023-01-11T08:56:56.567Z,4.84
2023-01-11T08:59:24.407Z,4.81
2023-01-11T09:01:52.322Z,4.86
2023-01-11T09:04:25.062Z,4.87
2023-01-11T09:06:54.246Z,4.88
2023-01-11T09:09:23.775Z,4.87
2023-01-11T09:11:58.807Z,4.90
2023-01-11T09:14:28.249Z,4.90
2023-01-11T09:16:57.322Z,4.91
2023-01-11T09:19:25.591Z,4.96
2023-01-11T09:21:56.056Z,4.98
2023-01-11T09:24:25.859Z,5.00
2023-01-11T09:26:53.724Z,5.03
2023-01-11T09:29:21.665Z,5.06
2023-01-11T09:31:49.634Z,5.08
2023-01-11T09:34:17.749Z,5.10
2023-01-11T09:36:48.696Z,5.06
2023-01-11T09:39:19.535Z,5.12
2023-01-11T09:42:37.430Z,5.12
2023-01-11T09:45:14.281Z,5.13
2023-01-11T09:47:47.151Z,5.17
2023-01-11T09:50:19.992Z,5.15
2023-01-11T09:52:52.837Z,5.13
2023-01-11T09:55:28.679Z,5.10
2023-01-11T09:58:29.276Z,5.19
2023-01-11T10:01:03.289Z,5.26
2023-01-11T10:03:49.826Z,5.29
2023-01-11T10:06:24.299Z,5.31
2023-01-11T10:18:29.210Z,5.35
2023-01-11T10:18:42.560Z,5.40
2023-01-11T10:21:06.746Z,5.47
2023-01-11T10:23:47.462Z,5.50
2023-01-11T10:26:27.179Z,5.54
2023-01-11T10:29:30.117Z,5.57
2023-01-11T10:32:18.704Z,5.61
2023-01-11T10:35:00.326Z,5.63
2023-01-11T10:37:59.582Z,5.62
2023-01-11T10:40:39.835Z,5.66
2023-01-11T10:43:17.029Z,5.68
2023-01-11T10:45:50.632Z,5.69
2023-01-11T10:48:25.362Z,5.72
2023-01-11T10:51:02.977Z,5.72
2023-01-11T10:53:38.098Z,5.80
2023-01-11T10:56:20.931Z,5.79
2023-01-11T10:59:07.901Z,5.79
2023-01-11T11:01:51.402Z,5.75
2023-01-11T11:04:47.735Z,5.82
2023-01-11T11:07:20.528Z,5.85
2023-01-11T11:09:59.185Z,5.85
2023-01-11T11:12:31.045Z,5.86
2023-01-11T11:15:04.965Z,5.89
2023-01-11T11:17:34.375Z,5.90
2023-01-11T11:20:14.090Z,5.90
2023-01-11T11:22:42.066Z,5.92
2023-01-11T11:25:17.626Z,5.92
2023-01-11T11:27:49.760Z,5.96
2023-01-11T11:30:30.320Z,6.00
2023-01-11T11:33:02.371Z,5.99
2023-01-11T11:35:33.680Z,6.07
2023-01-11T11:38:01.953Z,5.97
2023-01-11T11:40:33.208Z,6.08
2023-01-11T11:43:21.133Z,6.08
2023-01-11T11:45:53.962Z,6.10
2023-01-11T11:48:22.631Z,6.11
2023-01-11T11:50:53.834Z,6.13
2023-01-11T11:53:31.463Z,6.16
2023-01-11T11:55:59.910Z,6.18
2023-01-11T11:58:28.102Z,6.17
2023-01-11T12:00:56.066Z,6.15
2023-01-11T12:03:30.042Z,6.22
2023-01-11T12:06:02.227Z,6.22
2023-01-11T12:08:33.323Z,6.24
2023-01-11T12:11:04.219Z,6.28
2023-01-11T12:13:34.314Z,6.26
2023-01-11T12:16:04.603Z,6.39
2023-01-11T12:18:41.395Z,6.40
2023-01-11T12:21:19.594Z,6.43
2023-01-11T12:23:48.057Z,6.47
2023-01-11T12:26:27.440Z,6.50
2023-01-11T12:29:31.740Z,6.54
2023-01-11T12:32:12.613Z,6.40
2023-01-11T12:35:14.786Z,6.60
2023-01-11T12:38:05.559Z,6.67
2023-01-11T12:40:38.630Z,6.72
2023-01-11T12:43:28.455Z,6.80
2023-01-11T12:46:01.045Z,6.88
2023-01-11T12:48:41.107Z,6.96
2023-01-11T12:51:23.764Z,7.03
2023-01-11T12:54:05.217Z,7.07
2023-01-11T12:56:46.830Z,7.14
2023-01-11T12:59:27.734Z,7.21
2023-01-11T13:02:10.865Z,7.27
2023-01-11T13:04:55.536Z,7.28
2023-01-11T13:07:37.498Z,7.41
2023-01-11T13:10:22.163Z,7.46
2023-01-11T13:12:56.985Z,7.47
2023-01-11T13:15:35.921Z,7.49
2023-01-11T13:18:16.422Z,7.53
2023-01-11T13:21:00.645Z,7.55
2023-01-11T13:23:40.177Z,7.60
2023-01-11T13:26:26.029Z,7.62
2023-01-11T13:29:01.354Z,7.62
2023-01-11T13:31:30.115Z,7.63
2023-01-11T13:34:03.871Z,7.54
2023-01-11T13:36:40.924Z,7.64
2023-01-11T13:39:18.756Z,7.67
2023-01-11T13:41:52.602Z,7.65
2023-01-11T13:44:24.733Z,7.66
2023-01-11T13:47:03.773Z,7.67
2023-01-11T13:49:50.141Z,7.66
2023-01-11T13:52:20.342Z,7.63
2023-01-11T13:54:59.545Z,7.57
2023-01-11T13:57:36.931Z,7.52
2023-01-11T14:00:16.237Z,7.50
2023-01-11T14:02:49.459Z,7.45
2023-01-11T14:05:21.263Z,7.39
2023-01-11T14:08:16.086Z,7.33
2023-01-11T14:10:53.419Z,7.29
2023-01-11T14:14:02.396Z,7.28
2023-01-11T14:16:41.170Z,7.26
2023-01-11T14:19:20.019Z,7.26
2023-01-11T14:22:02.189Z,7.18
2023-01-11T14:24:34.086Z,7.20
2023-01-11T14:27:31.085Z,7.11
2023-01-11T14:30:30.660Z,7.10
2023-01-11T14:33:21.404Z,6.93
2023-01-11T14:36:05.603Z,6.99
2023-01-11T14:38:56.904Z,6.94
2023-01-11T14:42:00.156Z,6.87
2023-01-11T14:44:53.850Z,6.80
2023-01-11T14:47:45.127Z,6.70
2023-01-11T14:50:22.569Z,6.60
2023-01-11T14:52:52.681Z,6.52
2023-01-11T14:55:24.368Z,6.39
2023-01-11T14:58:04.752Z,6.36
2023-01-11T15:01:04.949Z,6.27
2023-01-11T15:03:42.824Z,6.19
2023-01-11T15:06:16.966Z,6.14
2023-01-11T15:08:48.615Z,6.10
2023-01-11T15:11:35.468Z,6.07
2023-01-11T15:14:08.346Z,6.00
2023-01-11T15:16:56.161Z,5.95
2023-01-11T15:19:29.822Z,5.89
2023-01-11T15:21:59.469Z,5.85
2023-01-11T15:24:29.716Z,5.80
2023-01-11T15:27:00.372Z,5.75
2023-01-11T15:29:31.293Z,5.70
2023-01-11T15:32:22.232Z,5.63
2023-01-11T15:34:51.555Z,5.52
2023-01-11T15:37:51.803Z,5.51
2023-01-11T15:40:21.905Z,5.43
2023-01-11T15:43:24.270Z,5.42
2023-01-11T15:46:44.606Z,5.41
2023-01-11T15:49:50.639Z,5.40
2023-01-11T15:53:06.928Z,5.42
2023-01-11T15:56:04.379Z,5.44
2023-01-11T15:59:03.205Z,5.47
2023-01-11T16:01:31.761Z,5.53
2023-01-11T16:04:04.962Z,5.56
2023-01-11T16:06:47.379Z,5.53
2023-01-11T16:09:38.444Z,5.54
2023-01-11T16:12:21.348Z,5.52
2023-01-11T16:15:10.191Z,5.51
2023-01-11T16:17:41.506Z,5.51
2023-01-11T16:20:28.895Z,5.52
2023-01-11T16:22:59.999Z,5.48
2023-01-11T16:25:32.106Z,5.44
2023-01-11T16:28:01.455Z,5.42
2023-01-11T16:30:30.180Z,5.31
2023-01-11T16:33:16.069Z,5.30
2023-01-11T16:35:44.261Z,5.26
2023-01-11T16:38:17.037Z,5.23
2023-01-11T16:40:50.692Z,5.17
2023-01-11T16:43:22.061Z,5.17
2023-01-11T16:45:51.901Z,5.16
2023-01-11T16:48:21.562Z,5.15
2023-01-11T16:51:00.612Z,5.11
2023-01-11T16:53:30.150Z,4.93
2023-01-11T16:56:05.118Z,5.02
2023-01-11T16:58:34.674Z,4.99
2023-01-11T17:01:04.967Z,4.97
2023-01-11T17:03:34.739Z,4.95
2023-01-11T17:06:27.031Z,4.95
2023-01-11T17:08:56.401Z,4.93
2023-01-11T17:11:33.229Z,4.94
2023-01-11T17:14:31.481Z,4.96
2023-01-11T17:17:02.598Z,4.97
2023-01-11T17:19:32.321Z,4.95
2023-01-11T17:22:04.601Z,4.87
2023-01-11T17:24:37.643Z,4.81
2023-01-11T17:27:09.498Z,4.72
2023-01-11T17:29:40.639Z,4.65
2023-01-11T17:32:16.081Z,4.61
2023-01-11T17:34:44.454Z,4.59
2023-01-11T17:37:17.055Z,4.59
2023-01-11T17:39:49.698Z,4.60
2023-01-11T17:42:37.439Z,4.63
2023-01-11T17:45:19.882Z,4.66
2023-01-11T17:47:51.763Z,4.67
2023-01-11T17:50:23.796Z,4.70
2023-01-11T17:52:55.514Z,4.72
2023-01-11T17:55:26.199Z,4.71
2023-01-11T17:58:22.955Z,4.68
2023-01-11T18:01:16.292Z,4.64
2023-01-11T18:03:45.810Z,4.60
2023-01-11T18:06:19.017Z,4.58
2023-01-11T18:08:49.697Z,4.51
2023-01-11T18:11:25.107Z,4.58
2023-01-11T18:13:56.286Z,4.56
2023-01-11T18:16:24.809Z,4.45
2023-01-11T18:18:54.107Z,4.46
2023-01-11T18:21:42.901Z,4.50
2023-01-11T18:24:29.222Z,4.36
2023-01-11T18:27:30.366Z,4.27
2023-01-11T18:30:02.539Z,4.27
2023-01-11T18:32:35.737Z,4.32
2023-01-11T18:35:04.158Z,4.39
2023-01-11T18:37:32.030Z,4.42
2023-01-11T18:40:01.336Z,4.52
2023-01-11T18:42:32.074Z,4.39
2023-01-11T18:45:01.332Z,4.34
2023-01-11T18:47:30.388Z,4.35
2023-01-11T18:49:59.189Z,4.28
2023-01-11T18:52:29.412Z,4.26
2023-01-11T18:54:58.291Z,4.22
2023-01-11T18:57:26.522Z,4.13
2023-01-11T18:59:54.595Z,3.97
2023-01-11T19:02:26.677Z,3.97
2023-01-11T19:04:56.147Z,4.05
2023-01-11T19:07:25.183Z,4.07
2023-01-11T19:09:54.769Z,4.23
2023-01-11T19:12:23.391Z,4.10
2023-01-11T19:14:51.286Z,3.97
2023-01-11T19:17:19.224Z,3.88
2023-01-11T19:19:48.519Z,4.00
2023-01-11T19:22:16.419Z,4.13
2023-01-11T19:24:44.333Z,4.21
2023-01-11T19:27:13.417Z,4.34
2023-01-11T19:29:41.488Z,4.42
2023-01-11T19:32:09.858Z,4.47
2023-01-11T19:34:39.549Z,4.37
2023-01-11T19:37:08.833Z,4.56
2023-01-11T19:39:36.873Z,4.56
2023-01-11T19:42:04.983Z,4.57
2023-01-11T19:44:34.069Z,4.57
2023-01-11T19:47:11.536Z,4.53
2023-01-11T19:49:40.494Z,4.44
2023-01-11T19:52:13.214Z,4.58
2023-01-11T19:54:42.847Z,4.63
2023-01-11T19:57:12.136Z,4.70
2023-01-11T19:59:39.965Z,4.72
2023-01-11T20:02:08.448Z,4.71
2023-01-11T20:04:37.115Z,4.66
2023-01-11T20:07:05.372Z,4.61
2023-01-11T20:09:37.516Z,4.57
2023-01-11T20:12:06.367Z,4.59
2023-01-11T20:14:34.864Z,4.62
2023-01-11T20:17:03.174Z,4.68
2023-01-11T20:19:31.274Z,4.64
2023-01-11T20:21:59.160Z,4.74
2023-01-11T20:24:29.693Z,4.72
2023-01-11T20:27:01.269Z,4.73
2023-01-11T20:29:29.245Z,4.75
2023-01-11T20:32:13.411Z,4.77
2023-01-11T20:34:45.984Z,4.71
2023-01-11T20:37:16.468Z,4.71
2023-01-11T20:39:44.668Z,4.78
2023-01-11T20:42:14.383Z,4.80
2023-01-11T20:44:45.366Z,4.82
2023-01-11T20:47:13.492Z,4.78
2023-01-11T20:49:41.609Z,4.66
2023-01-11T20:52:09.558Z,4.63
2023-01-11T20:54:37.706Z,4.49
2023-01-11T20:57:12.226Z,4.38
2023-01-11T20:59:41.560Z,4.18
2023-01-11T21:02:11.242Z,4.32
2023-01-11T21:04:39.133Z,4.28
2023-01-11T21:07:09.664Z,3.77
2023-01-11T21:09:37.859Z,4.20
2023-01-11T21:12:07.764Z,4.17
2023-01-11T21:14:37.189Z,4.26
2023-01-11T21:17:06.412Z,4.28
2023-01-11T21:19:34.320Z,4.30
2023-01-11T21:22:02.246Z,4.24
2023-01-11T21:24:30.405Z,4.26
2023-01-11T21:26:58.687Z,4.22
2023-01-11T21:29:26.766Z,4.27
2023-01-11T21:31:54.649Z,4.29
2023-01-11T21:34:24.333Z,4.25
2023-01-11T21:36:52.274Z,4.24
2023-01-11T21:39:20.190Z,4.25
2023-01-11T21:41:58.491Z,4.33
2023-01-11T21:44:33.913Z,4.42
2023-01-11T21:47:02.833Z,4.53
2023-01-11T21:49:32.708Z,4.61
2023-01-11T21:52:00.762Z,4.62
2023-01-11T21:54:28.659Z,4.63
2023-01-11T21:56:56.551Z,4.49
2023-01-11T21:59:25.613Z,4.50
2023-01-11T22:01:53.774Z,4.50
2023-01-11T22:04:21.825Z,4.44
2023-01-11T22:06:55.707Z,4.44
2023-01-11T22:09:26.369Z,4.39
2023-01-11T22:11:55.796Z,4.35
2023-01-11T22:14:23.696Z,4.36
2023-01-11T22:16:51.623Z,4.32
2023-01-11T22:19:19.765Z,4.25
2023-01-11T22:21:47.741Z,4.25
2023-01-11T22:24:17.850Z,4.28
2023-01-11T22:26:45.854Z,4.29
2023-01-11T22:29:15.374Z,4.35
2023-01-11T22:31:46.825Z,4.39
2023-01-11T22:34:15.904Z,4.21
2023-01-11T22:36:45.182Z,4.29
2023-01-11T22:39:14.678Z,4.28
2023-01-11T22:41:45.937Z,4.36
2023-01-11T22:44:17.230Z,4.38
2023-01-11T22:46:45.479Z,4.31
2023-01-11T22:49:14.237Z,4.30
2023-01-11T22:51:43.997Z,4.39
2023-01-11T22:54:12.713Z,4.44
2023-01-11T22:56:40.762Z,4.45
2023-01-11T22:59:10.374Z,4.53
2023-01-11T23:01:39.748Z,4.55
2023-01-11T23:04:09.471Z,4.58
2023-01-11T23:06:38.960Z,4.49
2023-01-11T23:09:09.329Z,4.62
2023-01-11T23:11:56.877Z,4.71
2023-01-11T23:14:29.154Z,4.85
2023-01-11T23:16:59.885Z,4.88
2023-01-11T23:19:27.729Z,4.88
2023-01-11T23:21:55.915Z,4.91
2023-01-11T23:24:23.799Z,4.92
2023-01-11T23:26:51.672Z,4.99
2023-01-11T23:29:21.431Z,4.98
2023-01-11T23:31:51.325Z,4.97
2023-01-11T23:34:19.380Z,5.02
2023-01-11T23:36:47.291Z,5.08
2023-01-11T23:39:16.886Z,5.09
2023-01-11T23:42:02.261Z,5.11
2023-01-11T23:44:30.397Z,5.13
2023-01-11T23:47:17.124Z,5.13
2023-01-11T23:49:45.528Z,5.20
2023-01-11T23:52:13.429Z,5.21
2023-01-11T23:54:41.383Z,5.15
2023-01-11T23:57:12.350Z,5.22
2023-01-11T23:59:41.470Z,5.27
